sensor_id;sensor_type;location;lat;lon;timestamp;P1;durP1;ratioP1;P2;durP2;ratioP2
40515;SDS011;26216;53.724;9.898;2022-11-20T00:01:07;3.17;;;2.40;;
40515;SDS011;26216;53.724;9.898;2022-11-20T00:03:40;3.97;;;2.80;;
40515;SDS011;26216;53.724;9.898;2022-11-20T00:06:08;4.47;;;2.88;;
40515;SDS011;26216;53.724;9.898;2022-11-20T00:08:36;4.40;;;2.85;;
40515;SDS011;26216;53.724;9.898;2022-11-20T00:11:06;4.00;;;2.50;;
40515;SDS011;26216;53.724;9.898;2022-11-20T00:13:42;4.32;;;2.80;;
40515;SDS011;26216;53.724;9.898;2022-11-20T00:16:11;4.38;;;2.42;;
40515;SDS011;26216;53.724;9.898;2022-11-20T00:18:38;3.70;;;2.55;;
40515;SDS011;26216;53.724;9.898;2022-11-20T00:21:04;4.25;;;2.83;;
40515;SDS011;26216;53.724;9.898;2022-11-20T00:23:35;4.10;;;2.70;;
40515;SDS011;26216;53.724;9.898;2022-11-20T00:26:11;3.55;;;2.40;;
40515;SDS011;26216;53.724;9.898;2022-11-20T00:28:38;3.08;;;2.22;;
40515;SDS011;26216;53.724;9.898;2022-11-20T00:31:11;4.45;;;2.60;;
40515;SDS011;26216;53.724;9.898;2022-11-20T00:33:39;2.90;;;2.08;;
40515;SDS011;26216;53.724;9.898;2022-11-20T00:36:06;5.07;;;2.92;;
40515;SDS011;26216;53.724;9.898;2022-11-20T00:38:34;3.85;;;2.63;;
40515;SDS011;26216;53.724;9.898;2022-11-20T00:41:02;4.65;;;2.50;;
40515;SDS011;26216;53.724;9.898;2022-11-20T00:43:30;4.43;;;2.63;;
40515;SDS011;26216;53.724;9.898;2022-11-20T00:46:00;3.70;;;2.25;;
40515;SDS011;26216;53.724;9.898;2022-11-20T00:48:31;4.93;;;2.38;;
40515;SDS011;26216;53.724;9.898;2022-11-20T00:50:57;4.18;;;2.60;;
40515;SDS011;26216;53.724;9.898;2022-11-20T00:53:24;4.65;;;2.83;;
40515;SDS011;26216;53.724;9.898;2022-11-20T00:55:53;5.50;;;2.90;;
40515;SDS011;26216;53.724;9.898;2022-11-20T00:58:21;3.92;;;2.67;;
40515;SDS011;26216;53.724;9.898;2022-11-20T01:00:47;4.05;;;2.63;;
40515;SDS011;26216;53.724;9.898;2022-11-20T01:03:15;4.18;;;2.38;;
40515;SDS011;26216;53.724;9.898;2022-11-20T01:05:42;3.35;;;2.30;;
40515;SDS011;26216;53.724;9.898;2022-11-20T01:08:08;3.90;;;2.88;;
40515;SDS011;26216;53.724;9.898;2022-11-20T01:10:34;4.72;;;3.30;;
40515;SDS011;26216;53.724;9.898;2022-11-20T01:13:00;3.50;;;2.33;;
40515;SDS011;26216;53.724;9.898;2022-11-20T01:15:44;3.42;;;2.15;;
40515;SDS011;26216;53.724;9.898;2022-11-20T01:18:10;3.83;;;2.55;;
40515;SDS011;26216;53.724;9.898;2022-11-20T01:20:36;3.60;;;2.13;;
40515;SDS011;26216;53.724;9.898;2022-11-20T01:23:02;3.20;;;1.98;;
40515;SDS011;26216;53.724;9.898;2022-11-20T01:25:29;3.33;;;2.22;;
40515;SDS011;26216;53.724;9.898;2022-11-20T01:27:55;3.47;;;2.13;;
40515;SDS011;26216;53.724;9.898;2022-11-20T01:30:21;3.97;;;2.10;;
40515;SDS011;26216;53.724;9.898;2022-11-20T01:32:47;3.97;;;2.45;;
40515;SDS011;26216;53.724;9.898;2022-11-20T01:35:13;3.08;;;2.20;;
40515;SDS011;26216;53.724;9.898;2022-11-20T01:37:39;4.18;;;2.08;;
40515;SDS011;26216;53.724;9.898;2022-11-20T01:40:05;5.88;;;2.20;;
40515;SDS011;26216;53.724;9.898;2022-11-20T01:42:31;3.60;;;2.08;;
40515;SDS011;26216;53.724;9.898;2022-11-20T01:48:37;3.47;;;2.08;;
40515;SDS011;26216;53.724;9.898;2022-11-20T01:51:12;3.22;;;1.80;;
40515;SDS011;26216;53.724;9.898;2022-11-20T01:53:42;3.03;;;1.90;;
40515;SDS011;26216;53.724;9.898;2022-11-20T01:56:09;2.72;;;1.55;;
40515;SDS011;26216;53.724;9.898;2022-11-20T01:58:38;2.95;;;2.03;;
40515;SDS011;26216;53.724;9.898;2022-11-20T02:01:07;3.25;;;1.77;;
40515;SDS011;26216;53.724;9.898;2022-11-20T02:03:34;2.72;;;1.70;;
40515;SDS011;26216;53.724;9.898;2022-11-20T02:06:06;4.03;;;1.77;;
40515;SDS011;26216;53.724;9.898;2022-11-20T02:08:48;2.78;;;1.50;;
40515;SDS011;26216;53.724;9.898;2022-11-20T02:11:13;2.97;;;2.05;;
40515;SDS011;26216;53.724;9.898;2022-11-20T02:13:40;3.10;;;1.98;;
40515;SDS011;26216;53.724;9.898;2022-11-20T02:16:10;3.83;;;2.10;;
40515;SDS011;26216;53.724;9.898;2022-11-20T02:18:40;4.80;;;2.10;;
40515;SDS011;26216;53.724;9.898;2022-11-20T02:21:09;2.78;;;1.85;;
40515;SDS011;26216;53.724;9.898;2022-11-20T02:23:58;2.75;;;1.90;;
40515;SDS011;26216;53.724;9.898;2022-11-20T02:26:37;2.85;;;1.92;;
40515;SDS011;26216;53.724;9.898;2022-11-20T02:29:11;2.20;;;1.60;;
40515;SDS011;26216;53.724;9.898;2022-11-20T02:31:38;2.58;;;1.80;;
40515;SDS011;26216;53.724;9.898;2022-11-20T02:34:06;2.72;;;1.75;;
40515;SDS011;26216;53.724;9.898;2022-11-20T02:36:32;4.30;;;2.22;;
40515;SDS011;26216;53.724;9.898;2022-11-20T02:39:00;3.28;;;2.10;;
40515;SDS011;26216;53.724;9.898;2022-11-20T02:41:31;3.25;;;2.10;;
40515;SDS011;26216;53.724;9.898;2022-11-20T02:43:58;3.92;;;2.13;;
40515;SDS011;26216;53.724;9.898;2022-11-20T02:46:24;2.75;;;1.70;;
40515;SDS011;26216;53.724;9.898;2022-11-20T02:48:50;3.15;;;1.90;;
40515;SDS011;26216;53.724;9.898;2022-11-20T02:51:22;3.13;;;2.05;;
40515;SDS011;26216;53.724;9.898;2022-11-20T02:53:48;3.13;;;1.80;;
40515;SDS011;26216;53.724;9.898;2022-11-20T02:56:14;2.63;;;1.80;;
40515;SDS011;26216;53.724;9.898;2022-11-20T02:58:40;3.22;;;1.63;;
40515;SDS011;26216;53.724;9.898;2022-11-20T03:01:06;2.88;;;1.88;;
40515;SDS011;26216;53.724;9.898;2022-11-20T03:03:32;2.55;;;1.83;;
40515;SDS011;26216;53.724;9.898;2022-11-20T03:05:59;3.10;;;2.08;;
40515;SDS011;26216;53.724;9.898;2022-11-20T03:08:25;2.65;;;1.90;;
40515;SDS011;26216;53.724;9.898;2022-11-20T03:10:51;3.28;;;2.08;;
40515;SDS011;26216;53.724;9.898;2022-11-20T03:13:17;3.15;;;2.17;;
40515;SDS011;26216;53.724;9.898;2022-11-20T03:15:43;3.22;;;1.95;;
40515;SDS011;26216;53.724;9.898;2022-11-20T03:18:08;3.88;;;2.13;;
40515;SDS011;26216;53.724;9.898;2022-11-20T03:20:34;3.83;;;1.83;;
40515;SDS011;26216;53.724;9.898;2022-11-20T03:23:00;3.50;;;2.05;;
40515;SDS011;26216;53.724;9.898;2022-11-20T03:25:27;3.28;;;2.10;;
40515;SDS011;26216;53.724;9.898;2022-11-20T03:27:53;3.35;;;2.03;;
40515;SDS011;26216;53.724;9.898;2022-11-20T03:30:19;3.63;;;2.33;;
40515;SDS011;26216;53.724;9.898;2022-11-20T03:32:45;3.45;;;2.13;;
40515;SDS011;26216;53.724;9.898;2022-11-20T03:35:11;2.78;;;1.90;;
40515;SDS011;26216;53.724;9.898;2022-11-20T03:37:37;3.58;;;2.00;;
40515;SDS011;26216;53.724;9.898;2022-11-20T03:40:03;4.60;;;2.10;;
40515;SDS011;26216;53.724;9.898;2022-11-20T03:42:29;2.45;;;1.75;;
40515;SDS011;26216;53.724;9.898;2022-11-20T03:45:10;2.70;;;1.63;;
40515;SDS011;26216;53.724;9.898;2022-11-20T03:47:37;3.03;;;1.98;;
40515;SDS011;26216;53.724;9.898;2022-11-20T03:50:03;2.67;;;1.58;;
40515;SDS011;26216;53.724;9.898;2022-11-20T03:52:29;2.55;;;1.42;;
40515;SDS011;26216;53.724;9.898;2022-11-20T03:54:55;2.60;;;1.60;;
40515;SDS011;26216;53.724;9.898;2022-11-20T03:57:21;2.88;;;1.65;;
40515;SDS011;26216;53.724;9.898;2022-11-20T03:59:47;3.30;;;1.90;;
40515;SDS011;26216;53.724;9.898;2022-11-20T04:02:13;2.33;;;1.30;;
40515;SDS011;26216;53.724;9.898;2022-11-20T04:04:38;2.83;;;1.67;;
40515;SDS011;26216;53.724;9.898;2022-11-20T04:07:04;2.78;;;1.67;;
40515;SDS011;26216;53.724;9.898;2022-11-20T04:09:30;5.15;;;2.30;;
40515;SDS011;26216;53.724;9.898;2022-11-20T04:11:56;4.50;;;2.60;;
40515;SDS011;26216;53.724;9.898;2022-11-20T04:14:22;5.18;;;2.35;;
40515;SDS011;26216;53.724;9.898;2022-11-20T04:16:47;5.25;;;2.80;;
40515;SDS011;26216;53.724;9.898;2022-11-20T04:19:14;4.35;;;2.25;;
40515;SDS011;26216;53.724;9.898;2022-11-20T04:21:41;3.47;;;2.40;;
40515;SDS011;26216;53.724;9.898;2022-11-20T04:24:09;2.80;;;1.92;;
40515;SDS011;26216;53.724;9.898;2022-11-20T04:26:35;3.10;;;1.98;;
40515;SDS011;26216;53.724;9.898;2022-11-20T04:29:02;3.40;;;2.20;;
40515;SDS011;26216;53.724;9.898;2022-11-20T04:31:29;2.45;;;1.60;;
40515;SDS011;26216;53.724;9.898;2022-11-20T04:33:59;2.33;;;1.70;;
40515;SDS011;26216;53.724;9.898;2022-11-20T04:36:26;3.58;;;2.00;;
40515;SDS011;26216;53.724;9.898;2022-11-20T04:38:53;3.10;;;1.80;;
40515;SDS011;26216;53.724;9.898;2022-11-20T04:41:43;2.67;;;1.90;;
40515;SDS011;26216;53.724;9.898;2022-11-20T04:44:09;2.58;;;2.00;;
40515;SDS011;26216;53.724;9.898;2022-11-20T04:46:44;2.03;;;1.50;;
40515;SDS011;26216;53.724;9.898;2022-11-20T04:49:10;2.65;;;1.52;;
40515;SDS011;26216;53.724;9.898;2022-11-20T04:51:36;2.40;;;1.80;;
40515;SDS011;26216;53.724;9.898;2022-11-20T04:54:02;2.88;;;1.85;;
40515;SDS011;26216;53.724;9.898;2022-11-20T04:56:28;3.55;;;1.60;;
40515;SDS011;26216;53.724;9.898;2022-11-20T04:58:54;2.88;;;1.95;;
40515;SDS011;26216;53.724;9.898;2022-11-20T05:01:21;2.63;;;1.75;;
40515;SDS011;26216;53.724;9.898;2022-11-20T05:03:48;2.53;;;1.60;;
40515;SDS011;26216;53.724;9.898;2022-11-20T05:06:15;3.35;;;1.98;;
40515;SDS011;26216;53.724;9.898;2022-11-20T05:08:44;2.63;;;1.48;;
40515;SDS011;26216;53.724;9.898;2022-11-20T05:11:11;4.90;;;1.77;;
40515;SDS011;26216;53.724;9.898;2022-11-20T05:13:41;1.98;;;1.50;;
40515;SDS011;26216;53.724;9.898;2022-11-20T05:16:08;2.53;;;1.70;;
40515;SDS011;26216;53.724;9.898;2022-11-20T05:18:36;2.53;;;1.45;;
40515;SDS011;26216;53.724;9.898;2022-11-20T05:21:02;3.33;;;1.85;;
40515;SDS011;26216;53.724;9.898;2022-11-20T05:23:29;2.40;;;1.70;;
40515;SDS011;26216;53.724;9.898;2022-11-20T05:25:56;2.80;;;1.77;;
40515;SDS011;26216;53.724;9.898;2022-11-20T05:28:23;2.58;;;1.75;;
40515;SDS011;26216;53.724;9.898;2022-11-20T05:30:50;2.80;;;1.98;;
40515;SDS011;26216;53.724;9.898;2022-11-20T05:33:16;3.65;;;2.10;;
40515;SDS011;26216;53.724;9.898;2022-11-20T05:35:43;3.15;;;1.65;;
40515;SDS011;26216;53.724;9.898;2022-11-20T05:38:10;2.88;;;1.58;;
40515;SDS011;26216;53.724;9.898;2022-11-20T05:40:36;3.03;;;1.58;;
40515;SDS011;26216;53.724;9.898;2022-11-20T05:43:02;2.17;;;1.42;;
40515;SDS011;26216;53.724;9.898;2022-11-20T05:45:28;2.85;;;1.60;;
40515;SDS011;26216;53.724;9.898;2022-11-20T05:47:57;2.85;;;1.73;;
40515;SDS011;26216;53.724;9.898;2022-11-20T05:50:23;2.58;;;1.60;;
40515;SDS011;26216;53.724;9.898;2022-11-20T05:52:49;2.53;;;1.63;;
40515;SDS011;26216;53.724;9.898;2022-11-20T05:55:15;2.40;;;1.55;;
40515;SDS011;26216;53.724;9.898;2022-11-20T05:57:41;2.95;;;1.65;;
40515;SDS011;26216;53.724;9.898;2022-11-20T06:00:07;4.07;;;2.50;;
40515;SDS011;26216;53.724;9.898;2022-11-20T06:02:34;3.70;;;2.28;;
40515;SDS011;26216;53.724;9.898;2022-11-20T06:05:01;2.92;;;1.83;;
40515;SDS011;26216;53.724;9.898;2022-11-20T06:07:26;3.45;;;1.90;;
40515;SDS011;26216;53.724;9.898;2022-11-20T06:09:52;2.50;;;1.63;;
40515;SDS011;26216;53.724;9.898;2022-11-20T06:12:18;4.03;;;1.98;;
40515;SDS011;26216;53.724;9.898;2022-11-20T06:14:44;3.22;;;1.77;;
40515;SDS011;26216;53.724;9.898;2022-11-20T06:17:10;3.05;;;1.98;;
40515;SDS011;26216;53.724;9.898;2022-11-20T06:19:36;3.55;;;1.60;;
40515;SDS011;26216;53.724;9.898;2022-11-20T06:22:01;3.65;;;2.40;;
40515;SDS011;26216;53.724;9.898;2022-11-20T06:24:27;3.50;;;1.77;;
40515;SDS011;26216;53.724;9.898;2022-11-20T06:26:53;2.50;;;1.80;;
40515;SDS011;26216;53.724;9.898;2022-11-20T06:29:19;2.40;;;1.33;;
40515;SDS011;26216;53.724;9.898;2022-11-20T06:31:45;3.03;;;1.80;;
40515;SDS011;26216;53.724;9.898;2022-11-20T06:34:11;2.75;;;1.90;;
40515;SDS011;26216;53.724;9.898;2022-11-20T06:36:37;2.65;;;1.60;;
40515;SDS011;26216;53.724;9.898;2022-11-20T06:39:03;3.85;;;1.67;;
40515;SDS011;26216;53.724;9.898;2022-11-20T06:41:28;2.30;;;1.60;;
40515;SDS011;26216;53.724;9.898;2022-11-20T06:43:54;2.90;;;1.92;;
40515;SDS011;26216;53.724;9.898;2022-11-20T06:46:20;2.85;;;2.00;;
40515;SDS011;26216;53.724;9.898;2022-11-20T06:48:47;3.55;;;2.03;;
40515;SDS011;26216;53.724;9.898;2022-11-20T06:51:13;2.83;;;1.90;;
40515;SDS011;26216;53.724;9.898;2022-11-20T06:53:39;3.83;;;2.63;;
40515;SDS011;26216;53.724;9.898;2022-11-20T06:56:06;3.75;;;2.88;;
40515;SDS011;26216;53.724;9.898;2022-11-20T06:58:32;3.78;;;2.53;;
40515;SDS011;26216;53.724;9.898;2022-11-20T07:01:00;3.75;;;2.95;;
40515;SDS011;26216;53.724;9.898;2022-11-20T07:03:27;3.28;;;2.42;;
40515;SDS011;26216;53.724;9.898;2022-11-20T07:06:11;2.80;;;1.95;;
40515;SDS011;26216;53.724;9.898;2022-11-20T07:08:56;3.05;;;2.30;;
40515;SDS011;26216;53.724;9.898;2022-11-20T07:11:41;3.20;;;2.25;;
40515;SDS011;26216;53.724;9.898;2022-11-20T07:14:25;3.70;;;2.38;;
40515;SDS011;26216;53.724;9.898;2022-11-20T07:17:09;3.92;;;2.45;;
40515;SDS011;26216;53.724;9.898;2022-11-20T07:19:55;3.10;;;2.00;;
40515;SDS011;26216;53.724;9.898;2022-11-20T07:22:39;4.93;;;2.55;;
40515;SDS011;26216;53.724;9.898;2022-11-20T07:25:24;3.35;;;2.25;;
40515;SDS011;26216;53.724;9.898;2022-11-20T07:28:09;3.55;;;2.55;;
40515;SDS011;26216;53.724;9.898;2022-11-20T07:30:54;3.55;;;2.55;;
40515;SDS011;26216;53.724;9.898;2022-11-20T07:33:45;2.80;;;2.03;;
40515;SDS011;26216;53.724;9.898;2022-11-20T07:36:30;3.45;;;2.13;;
40515;SDS011;26216;53.724;9.898;2022-11-20T07:39:14;4.30;;;2.45;;
40515;SDS011;26216;53.724;9.898;2022-11-20T07:41:58;3.65;;;2.25;;
40515;SDS011;26216;53.724;9.898;2022-11-20T07:44:43;3.50;;;2.30;;
40515;SDS011;26216;53.724;9.898;2022-11-20T07:47:27;5.30;;;2.40;;
40515;SDS011;26216;53.724;9.898;2022-11-20T07:50:12;3.45;;;2.35;;
40515;SDS011;26216;53.724;9.898;2022-11-20T07:53:01;3.45;;;2.28;;
40515;SDS011;26216;53.724;9.898;2022-11-20T07:55:47;2.67;;;2.00;;
40515;SDS011;26216;53.724;9.898;2022-11-20T07:58:32;3.70;;;2.25;;
40515;SDS011;26216;53.724;9.898;2022-11-20T08:01:18;3.92;;;2.75;;
40515;SDS011;26216;53.724;9.898;2022-11-20T08:04:02;3.30;;;2.45;;
40515;SDS011;26216;53.724;9.898;2022-11-20T08:06:46;4.05;;;2.50;;
40515;SDS011;26216;53.724;9.898;2022-11-20T08:09:31;4.22;;;2.45;;
40515;SDS011;26216;53.724;9.898;2022-11-20T08:11:57;3.17;;;2.45;;
40515;SDS011;26216;53.724;9.898;2022-11-20T08:14:42;4.32;;;2.70;;
40515;SDS011;26216;53.724;9.898;2022-11-20T08:17:08;3.75;;;2.80;;
40515;SDS011;26216;53.724;9.898;2022-11-20T08:19:33;3.72;;;2.33;;
40515;SDS011;26216;53.724;9.898;2022-11-20T08:21:59;4.47;;;2.65;;
40515;SDS011;26216;53.724;9.898;2022-11-20T08:24:25;3.03;;;2.20;;
40515;SDS011;26216;53.724;9.898;2022-11-20T08:26:51;3.97;;;2.80;;
40515;SDS011;26216;53.724;9.898;2022-11-20T08:29:17;3.38;;;2.65;;
40515;SDS011;26216;53.724;9.898;2022-11-20T08:31:43;3.25;;;2.45;;
40515;SDS011;26216;53.724;9.898;2022-11-20T08:34:09;3.10;;;2.25;;
40515;SDS011;26216;53.724;9.898;2022-11-20T08:36:35;3.90;;;2.72;;
40515;SDS011;26216;53.724;9.898;2022-11-20T08:39:01;3.13;;;2.15;;
40515;SDS011;26216;53.724;9.898;2022-11-20T08:41:28;3.67;;;2.08;;
40515;SDS011;26216;53.724;9.898;2022-11-20T08:44:04;3.10;;;2.35;;
40515;SDS011;26216;53.724;9.898;2022-11-20T08:46:36;3.90;;;2.58;;
40515;SDS011;26216;53.724;9.898;2022-11-20T08:49:04;3.47;;;2.53;;
40515;SDS011;26216;53.724;9.898;2022-11-20T08:51:31;3.20;;;2.40;;
40515;SDS011;26216;53.724;9.898;2022-11-20T08:53:58;3.65;;;2.55;;
40515;SDS011;26216;53.724;9.898;2022-11-20T08:56:24;3.60;;;2.70;;
40515;SDS011;26216;53.724;9.898;2022-11-20T08:58:50;3.70;;;2.50;;
40515;SDS011;26216;53.724;9.898;2022-11-20T09:01:20;3.40;;;2.10;;
40515;SDS011;26216;53.724;9.898;2022-11-20T09:03:50;3.08;;;2.58;;
40515;SDS011;26216;53.724;9.898;2022-11-20T09:06:19;3.88;;;2.55;;
40515;SDS011;26216;53.724;9.898;2022-11-20T09:08:51;4.13;;;2.63;;
40515;SDS011;26216;53.724;9.898;2022-11-20T09:11:21;2.72;;;2.20;;
40515;SDS011;26216;53.724;9.898;2022-11-20T09:13:47;3.63;;;2.25;;
40515;SDS011;26216;53.724;9.898;2022-11-20T09:16:18;3.85;;;2.70;;
40515;SDS011;26216;53.724;9.898;2022-11-20T09:18:49;4.72;;;2.88;;
40515;SDS011;26216;53.724;9.898;2022-11-20T09:21:18;3.95;;;2.55;;
40515;SDS011;26216;53.724;9.898;2022-11-20T09:23:44;3.00;;;2.33;;
40515;SDS011;26216;53.724;9.898;2022-11-20T09:26:12;4.05;;;2.75;;
40515;SDS011;26216;53.724;9.898;2022-11-20T09:28:39;2.85;;;1.95;;
40515;SDS011;26216;53.724;9.898;2022-11-20T09:31:08;2.67;;;2.00;;
40515;SDS011;26216;53.724;9.898;2022-11-20T09:33:35;4.93;;;2.67;;
40515;SDS011;26216;53.724;9.898;2022-11-20T09:36:03;2.70;;;2.15;;
40515;SDS011;26216;53.724;9.898;2022-11-20T09:38:29;3.72;;;2.65;;
40515;SDS011;26216;53.724;9.898;2022-11-20T09:41:01;3.70;;;2.70;;
40515;SDS011;26216;53.724;9.898;2022-11-20T09:43:40;2.58;;;2.13;;
40515;SDS011;26216;53.724;9.898;2022-11-20T09:51:58;4.15;;;2.90;;
40515;SDS011;26216;53.724;9.898;2022-11-20T09:54:49;3.28;;;2.60;;
40515;SDS011;26216;53.724;9.898;2022-11-20T09:57:18;4.07;;;3.17;;
40515;SDS011;26216;53.724;9.898;2022-11-20T10:00:04;3.65;;;2.67;;
40515;SDS011;26216;53.724;9.898;2022-11-20T10:25:14;3.53;;;2.83;;
40515;SDS011;26216;53.724;9.898;2022-11-20T10:30:45;3.42;;;2.63;;
40515;SDS011;26216;53.724;9.898;2022-11-20T10:33:32;3.80;;;3.10;;
40515;SDS011;26216;53.724;9.898;2022-11-20T10:41:46;3.92;;;3.13;;
40515;SDS011;26216;53.724;9.898;2022-11-20T10:44:30;3.92;;;3.03;;
40515;SDS011;26216;53.724;9.898;2022-11-20T10:47:22;3.70;;;3.08;;
40515;SDS011;26216;53.724;9.898;2022-11-20T10:49:52;3.50;;;2.78;;
40515;SDS011;26216;53.724;9.898;2022-11-20T10:52:55;3.75;;;2.80;;
40515;SDS011;26216;53.724;9.898;2022-11-20T10:55:27;4.13;;;3.13;;
40515;SDS011;26216;53.724;9.898;2022-11-20T10:58:14;4.10;;;2.63;;
40515;SDS011;26216;53.724;9.898;2022-11-20T11:00:48;4.30;;;3.20;;
40515;SDS011;26216;53.724;9.898;2022-11-20T11:03:22;4.18;;;3.15;;
40515;SDS011;26216;53.724;9.898;2022-11-20T11:08:32;3.05;;;2.58;;
40515;SDS011;26216;53.724;9.898;2022-11-20T11:11:09;3.30;;;2.67;;
40515;SDS011;26216;53.724;9.898;2022-11-20T11:14:13;3.50;;;2.90;;
40515;SDS011;26216;53.724;9.898;2022-11-20T11:16:49;3.80;;;2.53;;
40515;SDS011;26216;53.724;9.898;2022-11-20T11:19:19;3.58;;;2.50;;
40515;SDS011;26216;53.724;9.898;2022-11-20T11:21:48;3.50;;;2.70;;
40515;SDS011;26216;53.724;9.898;2022-11-20T11:24:25;3.65;;;2.42;;
40515;SDS011;26216;53.724;9.898;2022-11-20T11:27:02;3.72;;;2.40;;
40515;SDS011;26216;53.724;9.898;2022-11-20T11:29:37;3.28;;;2.58;;
40515;SDS011;26216;53.724;9.898;2022-11-20T11:32:08;3.20;;;2.20;;
40515;SDS011;26216;53.724;9.898;2022-11-20T11:34:44;3.90;;;2.67;;
40515;SDS011;26216;53.724;9.898;2022-11-20T11:37:23;3.75;;;2.88;;
40515;SDS011;26216;53.724;9.898;2022-11-20T11:39:57;2.97;;;2.47;;
40515;SDS011;26216;53.724;9.898;2022-11-20T11:42:24;4.63;;;2.50;;
40515;SDS011;26216;53.724;9.898;2022-11-20T11:44:56;2.80;;;2.38;;
40515;SDS011;26216;53.724;9.898;2022-11-20T11:55:38;3.33;;;2.40;;
40515;SDS011;26216;53.724;9.898;2022-11-20T12:01:32;2.60;;;2.00;;
40515;SDS011;26216;53.724;9.898;2022-11-20T12:07:04;2.75;;;1.95;;
40515;SDS011;26216;53.724;9.898;2022-11-20T12:09:54;3.38;;;2.05;;
40515;SDS011;26216;53.724;9.898;2022-11-20T12:12:24;2.38;;;1.73;;
40515;SDS011;26216;53.724;9.898;2022-11-20T12:14:54;2.20;;;1.63;;
40515;SDS011;26216;53.724;9.898;2022-11-20T12:17:22;2.97;;;2.10;;
40515;SDS011;26216;53.724;9.898;2022-11-20T12:19:49;2.80;;;2.00;;
40515;SDS011;26216;53.724;9.898;2022-11-20T12:24:58;3.83;;;2.92;;
40515;SDS011;26216;53.724;9.898;2022-11-20T12:27:36;3.33;;;2.50;;
40515;SDS011;26216;53.724;9.898;2022-11-20T12:30:20;3.72;;;2.65;;
40515;SDS011;26216;53.724;9.898;2022-11-20T12:38:36;2.92;;;2.13;;
40515;SDS011;26216;53.724;9.898;2022-11-20T12:43:48;5.03;;;3.50;;
40515;SDS011;26216;53.724;9.898;2022-11-20T12:46:49;7.38;;;4.88;;
40515;SDS011;26216;53.724;9.898;2022-11-20T12:50:02;10.35;;;7.38;;
40515;SDS011;26216;53.724;9.898;2022-11-20T12:52:37;6.88;;;4.75;;
40515;SDS011;26216;53.724;9.898;2022-11-20T12:57:57;3.95;;;2.25;;
40515;SDS011;26216;53.724;9.898;2022-11-20T13:00:30;2.60;;;1.98;;
40515;SDS011;26216;53.724;9.898;2022-11-20T13:05:43;2.72;;;1.80;;
40515;SDS011;26216;53.724;9.898;2022-11-20T13:08:26;2.67;;;1.80;;
40515;SDS011;26216;53.724;9.898;2022-11-20T13:11:03;2.80;;;1.77;;
40515;SDS011;26216;53.724;9.898;2022-11-20T13:16:10;2.40;;;1.50;;
40515;SDS011;26216;53.724;9.898;2022-11-20T13:18:45;2.60;;;1.80;;
40515;SDS011;26216;53.724;9.898;2022-11-20T13:21:19;3.10;;;1.98;;
40515;SDS011;26216;53.724;9.898;2022-11-20T13:23:47;2.53;;;1.58;;
40515;SDS011;26216;53.724;9.898;2022-11-20T13:26:20;2.67;;;1.73;;
40515;SDS011;26216;53.724;9.898;2022-11-20T13:31:48;2.08;;;1.50;;
40515;SDS011;26216;53.724;9.898;2022-11-20T13:34:24;2.05;;;1.42;;
40515;SDS011;26216;53.724;9.898;2022-11-20T13:36:53;2.25;;;1.50;;
40515;SDS011;26216;53.724;9.898;2022-11-20T13:39:28;1.88;;;1.33;;
40515;SDS011;26216;53.724;9.898;2022-11-20T13:42:00;2.97;;;1.48;;
40515;SDS011;26216;53.724;9.898;2022-11-20T13:44:30;3.20;;;1.70;;
40515;SDS011;26216;53.724;9.898;2022-11-20T13:47:28;2.72;;;1.40;;
40515;SDS011;26216;53.724;9.898;2022-11-20T13:49:58;2.50;;;1.58;;
40515;SDS011;26216;53.724;9.898;2022-11-20T13:55:02;2.47;;;1.40;;
40515;SDS011;26216;53.724;9.898;2022-11-20T13:57:45;2.88;;;1.55;;
40515;SDS011;26216;53.724;9.898;2022-11-20T14:00:16;2.60;;;1.50;;
40515;SDS011;26216;53.724;9.898;2022-11-20T14:03:30;1.98;;;1.55;;
40515;SDS011;26216;53.724;9.898;2022-11-20T14:05:55;1.98;;;1.38;;
40515;SDS011;26216;53.724;9.898;2022-11-20T14:11:03;2.50;;;1.40;;
40515;SDS011;26216;53.724;9.898;2022-11-20T14:13:50;2.65;;;1.73;;
40515;SDS011;26216;53.724;9.898;2022-11-20T14:16:19;2.78;;;1.70;;
40515;SDS011;26216;53.724;9.898;2022-11-20T14:18:46;2.75;;;1.75;;
40515;SDS011;26216;53.724;9.898;2022-11-20T14:21:20;2.05;;;1.58;;
40515;SDS011;26216;53.724;9.898;2022-11-20T14:26:31;2.88;;;1.80;;
40515;SDS011;26216;53.724;9.898;2022-11-20T14:28:58;3.63;;;1.95;;
40515;SDS011;26216;53.724;9.898;2022-11-20T14:31:25;3.20;;;2.35;;
40515;SDS011;26216;53.724;9.898;2022-11-20T14:33:53;3.95;;;2.10;;
40515;SDS011;26216;53.724;9.898;2022-11-20T14:36:21;2.15;;;1.58;;
40515;SDS011;26216;53.724;9.898;2022-11-20T14:38:50;2.40;;;1.70;;
40515;SDS011;26216;53.724;9.898;2022-11-20T14:41:18;2.60;;;1.80;;
40515;SDS011;26216;53.724;9.898;2022-11-20T14:43:58;2.83;;;1.70;;
40515;SDS011;26216;53.724;9.898;2022-11-20T14:46:25;1.98;;;1.40;;
40515;SDS011;26216;53.724;9.898;2022-11-20T14:48:56;2.65;;;1.60;;
40515;SDS011;26216;53.724;9.898;2022-11-20T14:54:18;2.10;;;1.50;;
40515;SDS011;26216;53.724;9.898;2022-11-20T14:56:54;1.98;;;1.20;;
40515;SDS011;26216;53.724;9.898;2022-11-20T14:59:25;2.17;;;1.60;;
40515;SDS011;26216;53.724;9.898;2022-11-20T15:02:02;1.63;;;1.30;;
40515;SDS011;26216;53.724;9.898;2022-11-20T15:04:44;2.80;;;1.67;;
40515;SDS011;26216;53.724;9.898;2022-11-20T15:07:32;2.45;;;1.50;;
40515;SDS011;26216;53.724;9.898;2022-11-20T15:10:23;1.98;;;1.23;;
40515;SDS011;26216;53.724;9.898;2022-11-20T15:12:52;2.25;;;1.50;;
40515;SDS011;26216;53.724;9.898;2022-11-20T15:15:29;2.30;;;1.52;;
40515;SDS011;26216;53.724;9.898;2022-11-20T15:17:58;1.67;;;1.30;;
40515;SDS011;26216;53.724;9.898;2022-11-20T15:20:26;1.77;;;1.30;;
40515;SDS011;26216;53.724;9.898;2022-11-20T15:22:54;1.83;;;1.35;;
40515;SDS011;26216;53.724;9.898;2022-11-20T15:25:20;2.28;;;1.40;;
40515;SDS011;26216;53.724;9.898;2022-11-20T15:27:48;1.50;;;1.20;;
40515;SDS011;26216;53.724;9.898;2022-11-20T15:30:24;1.80;;;1.30;;
40515;SDS011;26216;53.724;9.898;2022-11-20T15:32:50;1.85;;;1.30;;
40515;SDS011;26216;53.724;9.898;2022-11-20T15:35:16;1.50;;;1.20;;
40515;SDS011;26216;53.724;9.898;2022-11-20T15:37:43;1.67;;;1.13;;
40515;SDS011;26216;53.724;9.898;2022-11-20T15:40:10;1.58;;;1.23;;
40515;SDS011;26216;53.724;9.898;2022-11-20T15:42:37;1.85;;;1.20;;
40515;SDS011;26216;53.724;9.898;2022-11-20T15:45:03;1.83;;;1.20;;
40515;SDS011;26216;53.724;9.898;2022-11-20T15:47:30;3.83;;;1.92;;
40515;SDS011;26216;53.724;9.898;2022-11-20T15:49:59;2.13;;;1.35;;
40515;SDS011;26216;53.724;9.898;2022-11-20T15:52:25;2.63;;;1.77;;
40515;SDS011;26216;53.724;9.898;2022-11-20T15:54:52;3.28;;;1.63;;
40515;SDS011;26216;53.724;9.898;2022-11-20T15:57:18;2.97;;;1.80;;
40515;SDS011;26216;53.724;9.898;2022-11-20T15:59:44;2.38;;;1.40;;
40515;SDS011;26216;53.724;9.898;2022-11-20T16:02:11;2.92;;;1.52;;
40515;SDS011;26216;53.724;9.898;2022-11-20T16:04:37;2.83;;;1.92;;
40515;SDS011;26216;53.724;9.898;2022-11-20T16:07:04;2.58;;;1.80;;
40515;SDS011;26216;53.724;9.898;2022-11-20T16:09:30;3.25;;;1.85;;
40515;SDS011;26216;53.724;9.898;2022-11-20T16:11:57;3.20;;;1.85;;
40515;SDS011;26216;53.724;9.898;2022-11-20T16:14:26;2.20;;;1.63;;
40515;SDS011;26216;53.724;9.898;2022-11-20T16:17:11;3.25;;;1.98;;
40515;SDS011;26216;53.724;9.898;2022-11-20T16:19:37;2.53;;;1.67;;
40515;SDS011;26216;53.724;9.898;2022-11-20T16:22:04;2.60;;;1.70;;
40515;SDS011;26216;53.724;9.898;2022-11-20T16:24:30;3.30;;;1.85;;
40515;SDS011;26216;53.724;9.898;2022-11-20T16:26:56;2.20;;;1.58;;
40515;SDS011;26216;53.724;9.898;2022-11-20T16:29:22;2.55;;;1.80;;
40515;SDS011;26216;53.724;9.898;2022-11-20T16:31:48;2.80;;;2.03;;
40515;SDS011;26216;53.724;9.898;2022-11-20T16:34:15;2.40;;;1.60;;
40515;SDS011;26216;53.724;9.898;2022-11-20T16:36:42;2.28;;;1.90;;
40515;SDS011;26216;53.724;9.898;2022-11-20T16:39:10;3.60;;;2.10;;
40515;SDS011;26216;53.724;9.898;2022-11-20T16:41:37;3.40;;;1.90;;